Terminal Aerodrome Forecast
Issued by NWS Wichita, KS

Home | Current Version | Previous Version | Text Only | Print | Product List | Glossary On
Versions: 1 2 3 4 5 6 7 8 9 10 11 12
000
FTUS43 KICT 211120
TAFICT
TAF
KICT 211120Z 2112/2212 08007KT P6SM BKN015 OVC050
     FM211500 09007KT P6SM -DZ VCSH OVC008
     FM211700 12007KT 2SM -DZ VCSH OVC005
     FM220300 17004KT 1/2SM FG OVC004=

USA.gov is the U.S. government's official web portal to all federal, state and local government web resources and services.